Terminal Aerodrome Forecast
Issued by NWS

Home | Current Version | Previous Version | Text Only | Print | Product List | Glossary On
Versions: 1 2 3 4 5 6 7 8 9 10 11 12 13 14 15 16 17 18 19 20 21 22 23 24 25 26 27 28 29
000
FTUS46 KSEW 022300
TAFSEA
TAF
KSEA 022322Z 0300/0406 21009KT P6SM FEW030 BKN070 OVC100
     FM030500 21008KT P6SM BKN030 OVC060
     FM030900 21008KT P6SM BKN015 OVC030
     FM031900 25006KT P6SM SCT030 BKN060
     FM032200 30006KT P6SM FEW035 SCT060 BKN150=

USA.gov is the U.S. government's official web portal to all federal, state and local government web resources and services.